Abra Grande, Argentina
Current Conditions -  °F | °C
As of 5:00 PM on Monday 24 Nov 2014 (Local Time) from SANT Reporting Station
Few Clouds Few Clouds  
Wind Chill: 34°   Ceiling: Unl
Heat Index: 36°   Visibility: 6mi
Dew Point: 19°   Wind: 12mph
Humidity: 41%   Direction: 180°S
Pressure: 29.65"   Gusts: NA
Location:  27.33°S, 64.33°W
Report Text: SANT 242000Z 18010KT 9999 FEW045TCU FEW050CB 34/19 Q1004
Loading
Personal Weather Stations






























Interactive Weather Map New forecast layout! Learn more

10-Day Weather Forecast

Advertisements
Track Severe Weather on mobile